createdAt,value
2019-01-25T00:00:41.375Z,39.63
2019-01-25T00:03:11.774Z,44.20
2019-01-25T00:05:42.128Z,46.63
2019-01-25T00:08:12.567Z,43.47
2019-01-25T00:10:43.130Z,42.10
2019-01-25T00:13:13.750Z,40.57
2019-01-25T00:15:44.271Z,44.48
2019-01-25T00:18:14.691Z,41.97
2019-01-25T00:20:44.932Z,41.87
2019-01-25T00:23:15.299Z,38.83
2019-01-25T00:25:45.889Z,44.03
2019-01-25T00:28:16.474Z,42.47
2019-01-25T00:30:46.836Z,40.97
2019-01-25T00:33:17.183Z,43.52
2019-01-25T00:35:47.608Z,43.20
2019-01-25T00:38:18.450Z,41.87
2019-01-25T00:40:48.882Z,33.80
2019-01-25T00:43:19.421Z,42.60
2019-01-25T00:45:50.054Z,43.47
2019-01-25T00:48:20.607Z,43.95
2019-01-25T00:50:50.929Z,42.00
2019-01-25T00:53:21.411Z,41.48
2019-01-25T00:55:51.937Z,43.80
2019-01-25T00:58:22.501Z,43.20
2019-01-25T01:00:53.062Z,43.33
2019-01-25T01:03:23.606Z,43.30
2019-01-25T01:05:54.216Z,43.43
2019-01-25T01:08:24.566Z,41.48
2019-01-25T01:10:55.227Z,43.67
2019-01-25T01:13:25.873Z,39.90
2019-01-25T01:15:56.625Z,39.83
2019-01-25T01:18:27.197Z,42.38
2019-01-25T01:20:57.572Z,43.63
2019-01-25T01:23:27.885Z,40.07
2019-01-25T01:25:58.266Z,43.38
2019-01-25T01:28:38.676Z,38.87
2019-01-25T01:31:15.026Z,43.47
2019-01-25T01:33:45.331Z,35.93
2019-01-25T01:36:15.652Z,38.92
2019-01-25T01:38:46.019Z,41.18
2019-01-25T01:41:16.331Z,40.63
2019-01-25T01:43:46.585Z,41.60
2019-01-25T01:46:16.912Z,38.80
2019-01-25T01:48:47.118Z,37.97
2019-01-25T01:51:17.477Z,42.57
2019-01-25T01:53:47.799Z,43.00
2019-01-25T01:56:18.100Z,36.70
2019-01-25T01:58:48.387Z,42.73
2019-01-25T02:01:18.682Z,39.03
2019-01-25T02:03:48.972Z,39.53
2019-01-25T02:06:19.273Z,39.38
2019-01-25T02:08:54.919Z,41.07
2019-01-25T02:11:25.300Z,41.43
2019-01-25T02:13:55.582Z,37.67
2019-01-25T02:16:25.797Z,42.20
2019-01-25T02:18:56.220Z,45.23
2019-01-25T02:21:26.535Z,40.80
2019-01-25T02:23:56.844Z,39.10
2019-01-25T02:26:27.134Z,38.87
2019-01-25T02:28:57.423Z,39.70
2019-01-25T02:31:27.736Z,41.90
2019-01-25T02:33:58.024Z,40.97
2019-01-25T02:36:28.396Z,41.73
2019-01-25T02:38:58.744Z,42.90
2019-01-25T02:41:29.061Z,38.02
2019-01-25T02:43:59.386Z,42.33
2019-01-25T02:46:29.803Z,38.73
2019-01-25T02:49:00.034Z,37.40
2019-01-25T02:51:30.387Z,40.40
2019-01-25T02:54:00.651Z,40.97
2019-01-25T02:56:30.861Z,41.40
2019-01-25T02:59:01.203Z,42.87
2019-01-25T03:01:31.570Z,38.13
2019-01-25T03:04:01.949Z,42.60
2019-01-25T03:06:32.264Z,37.77
2019-01-25T03:09:02.704Z,37.20
2019-01-25T03:11:32.927Z,39.67
2019-01-25T03:14:03.254Z,37.77
2019-01-25T03:16:33.602Z,41.00
2019-01-25T03:19:03.852Z,39.83
2019-01-25T03:21:34.164Z,37.77
2019-01-25T03:24:04.532Z,38.33
2019-01-25T03:26:34.927Z,37.57
2019-01-25T03:29:05.353Z,40.23
2019-01-25T03:31:37.755Z,41.17
2019-01-25T03:34:07.733Z,41.37
2019-01-25T03:36:38.067Z,39.17
2019-01-25T03:39:12.242Z,37.00
2019-01-25T03:41:42.650Z,38.87
2019-01-25T03:44:12.941Z,37.43
2019-01-25T03:46:43.239Z,37.40
2019-01-25T03:49:13.633Z,37.98
2019-01-25T03:51:43.931Z,38.95
2019-01-25T03:54:14.213Z,41.53
2019-01-25T03:56:47.980Z,37.30
2019-01-25T03:59:18.319Z,37.83
2019-01-25T04:01:48.697Z,43.30
2019-01-25T04:04:19.059Z,35.20
2019-01-25T04:06:49.400Z,40.33
2019-01-25T04:09:19.990Z,41.50
2019-01-25T04:11:50.517Z,39.63
2019-01-25T04:14:21.003Z,38.07
2019-01-25T04:16:51.704Z,39.03
2019-01-25T04:19:22.071Z,40.43
2019-01-25T04:21:52.604Z,37.53
2019-01-25T04:24:23.194Z,41.57
2019-01-25T04:26:53.564Z,40.33
2019-01-25T04:29:24.164Z,44.35
2019-01-25T04:31:54.442Z,39.47
2019-01-25T04:34:24.781Z,42.37
2019-01-25T04:36:55.179Z,41.63
2019-01-25T04:39:25.400Z,41.40
2019-01-25T04:41:55.734Z,36.70
2019-01-25T04:44:26.090Z,38.90
2019-01-25T04:46:56.758Z,38.83
2019-01-25T04:49:27.328Z,39.83
2019-01-25T04:51:57.847Z,38.97
2019-01-25T04:54:28.419Z,41.30
2019-01-25T04:56:58.962Z,40.25
2019-01-25T04:59:31.781Z,39.60
2019-01-25T05:02:02.362Z,34.80
2019-01-25T05:04:36.819Z,44.50
2019-01-25T05:07:07.623Z,37.30
2019-01-25T05:09:41.778Z,37.93
2019-01-25T05:12:12.130Z,41.12
2019-01-25T05:14:42.474Z,38.63
2019-01-25T05:17:12.642Z,42.63
2019-01-25T05:19:43.171Z,42.63
2019-01-25T05:22:13.522Z,39.37
2019-01-25T05:24:43.994Z,43.80
2019-01-25T05:27:14.295Z,44.00
2019-01-25T05:29:53.915Z,39.17
2019-01-25T05:32:24.262Z,40.77
2019-01-25T05:34:54.630Z,38.93
2019-01-25T05:37:24.972Z,38.55
2019-01-25T05:39:55.312Z,38.83
2019-01-25T05:42:25.664Z,41.10
2019-01-25T05:44:55.976Z,40.47
2019-01-25T05:47:26.302Z,42.97
2019-01-25T05:49:56.489Z,43.03
2019-01-25T05:52:26.917Z,38.23
2019-01-25T05:54:57.221Z,41.80
2019-01-25T05:57:27.593Z,40.83
2019-01-25T05:59:57.940Z,43.20
2019-01-25T06:02:28.262Z,43.07
2019-01-25T06:04:58.694Z,44.63
2019-01-25T06:07:29.873Z,42.67
2019-01-25T06:10:01.896Z,42.70
2019-01-25T06:12:32.217Z,40.77
2019-01-25T06:15:02.564Z,41.67
2019-01-25T06:17:33.461Z,41.83
2019-01-25T06:20:06.381Z,42.73
2019-01-25T06:22:39.877Z,38.87
2019-01-25T06:25:10.662Z,38.40
2019-01-25T06:27:41.446Z,38.88
2019-01-25T06:30:19.007Z,40.73
2019-01-25T06:32:49.315Z,41.03
2019-01-25T06:35:19.613Z,41.23
2019-01-25T06:37:50.101Z,37.63
2019-01-25T06:40:20.381Z,41.98
2019-01-25T06:42:50.750Z,45.13
2019-01-25T06:45:21.074Z,41.97
2019-01-25T06:47:52.231Z,40.83
2019-01-25T06:50:22.401Z,41.40
2019-01-25T06:52:52.630Z,44.53
2019-01-25T06:55:22.879Z,40.30
2019-01-25T06:58:22.031Z,43.13
2019-01-25T07:00:59.977Z,41.57
2019-01-25T07:03:30.730Z,42.27
2019-01-25T07:06:01.012Z,40.00
2019-01-25T07:08:31.408Z,41.90
2019-01-25T07:11:01.913Z,42.47
2019-01-25T07:13:32.363Z,42.43
2019-01-25T07:16:02.674Z,44.43
2019-01-25T07:18:32.964Z,39.30
2019-01-25T07:21:03.342Z,41.50
2019-01-25T07:23:33.642Z,40.33
2019-01-25T07:26:04.018Z,45.83
2019-01-25T07:28:34.260Z,45.07
2019-01-25T07:31:04.925Z,40.03
2019-01-25T07:33:35.405Z,46.70
2019-01-25T07:36:07.247Z,43.60
2019-01-25T07:38:37.889Z,41.33
2019-01-25T07:41:08.353Z,43.17
2019-01-25T07:43:44.889Z,44.30
2019-01-25T07:46:18.745Z,42.50
2019-01-25T07:48:51.841Z,46.27
2019-01-25T07:51:22.177Z,41.10
2019-01-25T07:53:52.655Z,47.40
2019-01-25T07:56:23.004Z,45.47
2019-01-25T07:58:53.333Z,48.07
2019-01-25T08:01:26.523Z,46.65
2019-01-25T08:03:59.938Z,42.33
2019-01-25T08:06:32.936Z,43.23
2019-01-25T08:09:07.597Z,44.80
2019-01-25T08:11:40.883Z,46.03
2019-01-25T08:14:14.068Z,38.80
2019-01-25T08:16:47.198Z,47.23
2019-01-25T08:19:22.868Z,45.92
2019-01-25T08:21:56.286Z,43.93
2019-01-25T08:24:29.433Z,42.23
2019-01-25T08:27:02.709Z,43.97
2019-01-25T08:29:35.954Z,48.10
2019-01-25T08:32:09.830Z,42.83
2019-01-25T08:34:40.252Z,46.13
2019-01-25T08:37:10.690Z,47.10
2019-01-25T08:39:41.027Z,42.57
2019-01-25T08:42:15.699Z,43.02
2019-01-25T08:44:43.656Z,45.40
2019-01-25T08:47:14.270Z,45.40
2019-01-25T08:49:44.697Z,44.50
2019-01-25T08:52:15.049Z,46.90
2019-01-25T08:54:45.549Z,49.90
2019-01-25T08:57:16.003Z,43.90
2019-01-25T08:59:46.373Z,47.80
2019-01-25T09:02:17.909Z,46.20
2019-01-25T09:04:48.328Z,45.87
2019-01-25T09:07:18.898Z,47.57
2019-01-25T09:09:49.303Z,46.17
2019-01-25T09:12:23.333Z,48.27
2019-01-25T09:14:51.725Z,49.00
2019-01-25T09:17:22.151Z,48.33
2019-01-25T09:19:52.652Z,45.87
2019-01-25T09:22:23.109Z,50.03
2019-01-25T09:24:53.428Z,48.37
2019-01-25T09:27:23.932Z,48.20
2019-01-25T09:29:54.244Z,38.67
2019-01-25T09:32:24.610Z,44.18
2019-01-25T09:34:54.778Z,41.80
2019-01-25T09:37:25.222Z,47.17
2019-01-25T09:39:55.754Z,48.77
2019-01-25T09:42:30.992Z,46.53
2019-01-25T09:44:58.080Z,49.23
2019-01-25T09:47:28.414Z,47.60
2019-01-25T09:49:58.776Z,47.73
2019-01-25T09:52:29.010Z,44.10
2019-01-25T09:54:59.345Z,47.07
2019-01-25T09:57:29.857Z,46.00
2019-01-25T10:00:00.236Z,44.50
2019-01-25T10:02:30.727Z,49.30
2019-01-25T10:05:01.111Z,46.83
2019-01-25T10:07:31.556Z,44.77
2019-01-25T10:10:01.955Z,45.50
2019-01-25T10:12:36.060Z,47.10
2019-01-25T10:15:05.051Z,48.97
2019-01-25T10:17:35.452Z,46.93
2019-01-25T10:20:07.755Z,41.48
2019-01-25T10:22:38.156Z,46.33
2019-01-25T10:25:09.757Z,46.87
2019-01-25T10:27:40.101Z,49.10
2019-01-25T10:30:14.892Z,43.93
2019-01-25T10:32:45.143Z,47.33
2019-01-25T10:35:15.471Z,47.00
2019-01-25T10:37:46.144Z,47.23
2019-01-25T10:40:23.053Z,41.60
2019-01-25T10:42:53.828Z,48.17
2019-01-25T10:45:33.651Z,51.10
2019-01-25T10:48:03.915Z,51.75
2019-01-25T10:50:34.283Z,49.20
2019-01-25T10:53:06.406Z,46.03
2019-01-25T10:55:36.955Z,50.37
2019-01-25T10:58:10.575Z,50.57
2019-01-25T11:00:40.997Z,50.30
2019-01-25T11:03:11.288Z,45.12
2019-01-25T11:05:41.697Z,47.43
2019-01-25T11:08:12.055Z,45.33
2019-01-25T11:10:42.380Z,44.57
2019-01-25T11:13:12.782Z,47.03
2019-01-25T11:15:43.009Z,39.97
2019-01-25T11:18:13.406Z,44.80
2019-01-25T11:20:43.654Z,45.23
2019-01-25T11:23:13.992Z,41.40
2019-01-25T11:25:44.354Z,46.50
2019-01-25T11:28:14.598Z,46.50
2019-01-25T11:30:45.042Z,48.83
2019-01-25T11:33:15.304Z,48.03
2019-01-25T11:35:45.574Z,48.43
2019-01-25T11:38:15.874Z,46.87
2019-01-25T11:40:46.471Z,44.87
2019-01-25T11:43:16.805Z,48.43
2019-01-25T11:45:47.232Z,47.87
2019-01-25T11:48:17.535Z,47.07
2019-01-25T11:50:47.753Z,46.70
2019-01-25T11:53:17.976Z,48.85
2019-01-25T11:55:48.336Z,49.33
2019-01-25T11:58:18.637Z,42.77
2019-01-25T12:00:50.426Z,44.17
2019-01-25T12:03:20.905Z,46.10
2019-01-25T12:05:51.199Z,48.03
2019-01-25T12:08:22.431Z,48.73
2019-01-25T12:10:52.711Z,44.90
2019-01-25T12:13:23.023Z,44.85
2019-01-25T12:15:53.340Z,41.17
2019-01-25T12:18:23.751Z,45.70
2019-01-25T12:20:54.140Z,40.73
2019-01-25T12:23:24.548Z,44.80
2019-01-25T12:25:54.864Z,44.43
2019-01-25T12:28:25.206Z,42.93
2019-01-25T12:30:55.496Z,43.70
2019-01-25T12:33:25.782Z,44.87
2019-01-25T12:35:56.323Z,44.70
2019-01-25T12:38:26.651Z,40.37
2019-01-25T12:40:56.974Z,45.00
2019-01-25T12:43:27.276Z,46.17
2019-01-25T12:45:57.661Z,43.03
2019-01-25T12:48:28.051Z,44.17
2019-01-25T12:51:08.656Z,42.07
2019-01-25T12:53:38.976Z,43.03
2019-01-25T12:56:09.502Z,45.57
2019-01-25T12:58:49.142Z,45.13
2019-01-25T13:01:21.151Z,45.50
2019-01-25T13:03:51.507Z,43.90
2019-01-25T13:06:21.872Z,43.40
2019-01-25T13:08:52.231Z,44.40
2019-01-25T13:11:22.646Z,44.95
2019-01-25T13:13:52.986Z,44.63
2019-01-25T13:16:23.244Z,40.85
2019-01-25T13:18:53.490Z,42.33
2019-01-25T13:21:23.805Z,44.30
2019-01-25T13:23:54.121Z,44.03
2019-01-25T13:26:24.609Z,39.33
2019-01-25T13:28:54.826Z,36.70
2019-01-25T13:31:25.337Z,41.53
2019-01-25T13:33:55.577Z,41.83
2019-01-25T13:36:27.617Z,42.27
2019-01-25T13:38:57.953Z,38.03
2019-01-25T13:41:28.262Z,40.53
2019-01-25T13:43:58.563Z,41.00
2019-01-25T13:46:28.922Z,41.10
2019-01-25T13:48:59.321Z,34.00
2019-01-25T13:51:29.717Z,38.07
2019-01-25T13:54:00.123Z,39.45
2019-01-25T13:56:30.374Z,37.10
2019-01-25T13:59:00.687Z,37.13
2019-01-25T14:01:34.769Z,38.03
2019-01-25T14:04:04.199Z,35.70
2019-01-25T14:06:34.542Z,37.00
2019-01-25T14:09:07.755Z,34.23
2019-01-25T14:11:40.840Z,35.47
2019-01-25T14:14:11.106Z,33.45
2019-01-25T14:16:41.655Z,32.67
2019-01-25T14:19:12.025Z,31.92
2019-01-25T14:21:42.291Z,30.53
2019-01-25T14:24:16.459Z,32.28
2019-01-25T14:26:44.657Z,35.03
2019-01-25T14:29:15.028Z,37.17
2019-01-25T14:31:45.338Z,37.00
2019-01-25T14:34:21.883Z,33.70
2019-01-25T14:36:56.388Z,35.07
2019-01-25T14:39:24.274Z,29.77
2019-01-25T14:41:54.643Z,31.43
2019-01-25T14:44:25.105Z,35.25
2019-01-25T14:46:58.246Z,34.23
2019-01-25T14:49:28.642Z,36.97
2019-01-25T14:52:04.127Z,33.17
2019-01-25T14:54:34.443Z,33.90
2019-01-25T14:57:04.810Z,35.70
2019-01-25T14:59:35.076Z,36.70
2019-01-25T15:02:05.683Z,36.77
2019-01-25T15:04:36.056Z,35.40
2019-01-25T15:07:07.218Z,31.85
2019-01-25T15:09:38.116Z,38.13
2019-01-25T15:12:08.587Z,37.20
2019-01-25T15:14:41.130Z,34.50
2019-01-25T15:17:11.596Z,36.28
2019-01-25T15:19:41.873Z,33.80
2019-01-25T15:22:12.381Z,37.27
2019-01-25T15:24:42.648Z,35.10
2019-01-25T15:27:13.101Z,36.73
2019-01-25T15:29:44.856Z,38.17
2019-01-25T15:32:15.151Z,36.83
2019-01-25T15:34:45.595Z,38.07
2019-01-25T15:37:15.955Z,37.85
2019-01-25T15:39:47.014Z,36.20
2019-01-25T15:42:17.356Z,34.70
2019-01-25T15:44:47.787Z,35.43
2019-01-25T15:47:18.100Z,34.63
2019-01-25T15:49:48.393Z,36.27
2019-01-25T15:52:18.648Z,39.07
2019-01-25T15:54:50.735Z,35.58
2019-01-25T15:57:21.040Z,39.20
2019-01-25T15:59:51.419Z,36.43
2019-01-25T16:02:24.711Z,40.13
2019-01-25T16:04:54.968Z,38.10
2019-01-25T16:07:25.285Z,39.63
2019-01-25T16:09:56.854Z,39.70
2019-01-25T16:12:27.214Z,39.47
2019-01-25T16:14:57.638Z,40.27
2019-01-25T16:17:28.024Z,39.97
2019-01-25T16:19:58.426Z,38.67
2019-01-25T16:22:28.809Z,38.70
2019-01-25T16:24:59.016Z,41.33
2019-01-25T16:27:29.320Z,30.37
2019-01-25T16:30:01.029Z,37.10
2019-01-25T16:32:31.305Z,37.57
2019-01-25T16:35:05.811Z,39.03
2019-01-25T16:37:36.210Z,41.53
2019-01-25T16:40:10.754Z,37.88
2019-01-25T16:42:41.183Z,41.13
2019-01-25T16:45:37.656Z,36.48
2019-01-25T16:48:08.246Z,41.87
2019-01-25T16:50:40.028Z,39.33
2019-01-25T16:53:13.110Z,40.80
2019-01-25T16:55:43.945Z,40.27
2019-01-25T16:58:14.296Z,36.03
2019-01-25T17:00:49.417Z,39.20
2019-01-25T17:03:19.906Z,41.20
2019-01-25T17:05:50.345Z,39.70
2019-01-25T17:08:20.707Z,33.28
2019-01-25T17:10:51.181Z,34.53
2019-01-25T17:13:21.482Z,30.53
2019-01-25T17:15:52.629Z,34.57
2019-01-25T17:18:23.949Z,30.97
2019-01-25T17:20:54.315Z,34.60
2019-01-25T17:23:24.628Z,32.37
2019-01-25T17:25:54.916Z,31.90
2019-01-25T17:28:25.306Z,29.80
2019-01-25T17:30:55.737Z,26.10
2019-01-25T17:33:26.200Z,27.02
2019-01-25T17:35:56.545Z,21.00
2019-01-25T17:38:26.847Z,29.07
2019-01-25T17:40:57.181Z,24.20
2019-01-25T17:43:28.599Z,28.10
2019-01-25T17:45:58.873Z,26.27
2019-01-25T17:48:29.188Z,25.00
2019-01-25T17:50:59.567Z,22.63
2019-01-25T17:53:30.000Z,24.43
2019-01-25T17:56:00.432Z,23.97
2019-01-25T17:58:30.798Z,23.43
2019-01-25T18:01:01.125Z,19.57
2019-01-25T18:03:31.488Z,24.80
2019-01-25T18:06:01.933Z,22.02
2019-01-25T18:08:32.357Z,20.80
2019-01-25T18:11:02.802Z,22.27
2019-01-25T18:13:33.092Z,22.67
2019-01-25T18:16:03.473Z,24.53
2019-01-25T18:18:33.867Z,25.67
2019-01-25T18:21:04.314Z,25.50
2019-01-25T18:23:34.634Z,22.50
2019-01-25T18:26:14.961Z,24.97
2019-01-25T18:29:00.492Z,24.53
2019-01-25T18:31:32.423Z,25.83
2019-01-25T18:34:02.851Z,25.92
2019-01-25T18:36:33.336Z,26.13
2019-01-25T18:39:06.004Z,26.73
2019-01-25T18:44:18.203Z,26.93
2019-01-25T18:48:15.410Z,25.77
2019-01-25T18:50:51.822Z,26.30
2019-01-25T18:53:32.845Z,29.42
2019-01-25T18:56:17.714Z,27.90
2019-01-25T19:01:48.867Z,26.77
2019-01-25T19:04:33.297Z,28.85
2019-01-25T19:07:21.555Z,28.67
2019-01-25T19:09:55.416Z,27.33
2019-01-25T19:12:25.858Z,29.27
2019-01-25T19:15:04.113Z,24.33
2019-01-25T19:17:29.317Z,28.52
2019-01-25T19:19:59.736Z,24.67
2019-01-25T19:22:40.710Z,28.02
2019-01-25T19:25:09.285Z,23.83
2019-01-25T19:27:39.684Z,25.90
2019-01-25T19:30:23.837Z,27.87
2019-01-25T19:32:54.238Z,22.70
2019-01-25T19:35:24.749Z,24.50
2019-01-25T19:37:55.459Z,25.62
2019-01-25T19:40:37.877Z,24.47
2019-01-25T19:45:48.720Z,25.53
2019-01-25T19:48:19.110Z,26.90
2019-01-25T19:50:49.530Z,24.10
2019-01-25T19:53:39.141Z,21.63
2019-01-25T19:56:09.538Z,24.53
2019-01-25T19:58:39.955Z,24.97
2019-01-25T20:01:10.447Z,20.57
2019-01-25T20:03:40.867Z,20.83
2019-01-25T20:06:13.557Z,25.07
2019-01-25T20:22:34.093Z,18.73
2019-01-25T20:25:05.066Z,21.93
2019-01-25T20:27:38.300Z,21.47
2019-01-25T20:30:13.701Z,21.47
2019-01-25T20:32:44.140Z,20.03
2019-01-25T20:35:17.844Z,17.48
2019-01-25T20:37:48.242Z,19.50
2019-01-25T20:40:18.620Z,17.80
2019-01-25T20:42:49.044Z,19.47
2019-01-25T20:45:27.309Z,14.53
2019-01-25T20:47:55.590Z,20.87
2019-01-25T20:50:28.358Z,19.77
2019-01-25T20:52:59.228Z,14.63
2019-01-25T20:55:31.308Z,19.03
2019-01-25T20:58:02.406Z,18.20
2019-01-25T21:00:35.485Z,18.90
2019-01-25T21:03:12.268Z,19.40
2019-01-25T21:05:42.652Z,19.20
2019-01-25T21:08:13.256Z,15.10
2019-01-25T21:10:43.763Z,15.97
2019-01-25T21:13:15.676Z,17.27
2019-01-25T21:15:47.193Z,15.73
2019-01-25T21:18:17.708Z,18.93
2019-01-25T21:20:53.636Z,19.37
2019-01-25T21:23:24.241Z,15.53
2019-01-25T21:25:54.765Z,18.63
2019-01-25T21:28:25.251Z,18.27
2019-01-25T21:30:55.720Z,21.07
2019-01-25T21:33:26.800Z,19.63
2019-01-25T21:35:59.269Z,18.47
2019-01-25T21:38:29.318Z,19.83
2019-01-25T21:40:59.854Z,14.63
2019-01-25T21:43:30.283Z,19.53
2019-01-25T21:46:00.738Z,19.23
2019-01-25T21:48:31.181Z,18.17
2019-01-25T21:51:01.600Z,18.87
2019-01-25T21:53:31.998Z,21.30
2019-01-25T21:56:02.528Z,21.43
2019-01-25T21:58:35.403Z,21.40
2019-01-25T22:01:07.517Z,22.50
2019-01-25T22:03:37.874Z,19.60
2019-01-25T22:06:08.269Z,21.50
2019-01-25T22:08:42.738Z,25.63
2019-01-25T22:11:13.230Z,20.55
2019-01-25T22:13:43.657Z,18.90
2019-01-25T22:16:14.066Z,21.10
2019-01-25T22:18:44.367Z,26.93
2019-01-25T22:21:14.824Z,30.12
2019-01-25T22:23:45.261Z,25.43
2019-01-25T22:26:15.742Z,24.72
2019-01-25T22:28:46.214Z,26.63
2019-01-25T22:31:16.555Z,25.37
2019-01-25T22:33:47.169Z,25.53
2019-01-25T22:36:17.585Z,27.63
2019-01-25T22:38:50.762Z,29.23
2019-01-25T22:41:21.171Z,28.23
2019-01-25T22:43:51.689Z,27.13
2019-01-25T22:46:22.193Z,29.83
2019-01-25T22:48:52.654Z,31.20
2019-01-25T22:51:23.097Z,28.77
2019-01-25T22:53:55.510Z,33.23
2019-01-25T22:56:25.935Z,30.30
2019-01-25T22:58:56.481Z,28.47
2019-01-25T23:01:35.394Z,29.87
2019-01-25T23:05:00.643Z,30.45
2019-01-25T23:07:33.041Z,34.60
2019-01-25T23:10:23.256Z,37.33
2019-01-25T23:12:53.518Z,34.77
2019-01-25T23:15:23.989Z,37.07
2019-01-25T23:17:54.403Z,30.27
2019-01-25T23:20:24.858Z,37.23
2019-01-25T23:22:55.290Z,33.92
2019-01-25T23:25:25.656Z,31.60
2019-01-25T23:27:56.132Z,44.40
2019-01-25T23:30:28.742Z,28.07
2019-01-25T23:32:59.213Z,35.90
2019-01-25T23:35:29.621Z,32.00
2019-01-25T23:37:59.976Z,30.72
2019-01-25T23:40:30.375Z,28.87
2019-01-25T23:43:04.516Z,28.83
2019-01-25T23:45:34.940Z,33.10
2019-01-25T23:48:05.479Z,33.50
2019-01-25T23:50:35.807Z,24.40
2019-01-25T23:53:06.813Z,28.17
2019-01-25T23:55:37.258Z,32.17
2019-01-25T23:58:07.668Z,30.00
